Time;durP1;ratioP1;P1;durP2;ratioP2;P2;SDS_P1;SDS_P2;PMS_P1;PMS_P2;Temp;Humidity;BMP_temperature;BMP_pressure;BME280_temperature;BME280_humidity;BME280_pressure;Samples;Min_cycle;Max_cycle;Signal;HPM_P1;HPM_P2
2022/11/12 00:01:40;;;;;;;15.20;9.05;;;;;;;9.97;83.57;102227.66;6307668;22;20014;-93
2022/11/12 00:04:08;;;;;;;16.55;9.93;;;;;;;10.06;83.70;102259.19;6311655;22;20062;-93
2022/11/12 00:06:37;;;;;;;15.98;10.07;;;;;;;10.01;84.21;102256.88;6283045;22;20006;-91
2022/11/12 00:09:03;;;;;;;16.67;9.57;;;;;;;10.08;84.13;102257.25;6331922;22;20438;-92
2022/11/12 00:11:52;;;;;;;15.98;9.65;;;;;;;10.32;83.88;102287.66;6314500;22;20018;-89
2022/11/12 00:14:22;;;;;;;16.00;9.35;;;;;;;10.09;83.23;102237.44;6339730;22;20086;-88
2022/11/12 00:16:49;;;;;;;15.10;9.18;;;;;;;10.28;83.36;102264.66;6284620;22;20034;-91
2022/11/12 00:19:14;;;;;;;17.33;9.55;;;;;;;10.16;83.34;102254.84;6286838;22;20060;-91
2022/11/12 00:21:42;;;;;;;14.10;8.95;;;;;;;10.20;83.40;102258.97;6321852;22;20002;-90
2022/11/12 00:24:07;;;;;;;15.75;9.32;;;;;;;10.05;83.30;102219.88;6266529;22;20437;-89
2022/11/12 00:26:33;;;;;;;13.75;9.07;;;;;;;10.00;83.59;102219.38;6315400;22;20003;-90
2022/11/12 00:29:00;;;;;;;15.63;9.48;;;;;;;10.14;83.29;102235.28;6314498;22;20028;-93
2022/11/12 00:31:30;;;;;;;15.63;9.43;;;;;;;10.08;83.68;102241.97;6290514;22;20403;-92
2022/11/12 00:33:56;;;;;;;15.57;9.30;;;;;;;9.94;83.79;102216.16;6336727;22;20075;-91
2022/11/12 00:36:24;;;;;;;15.77;9.88;;;;;;;9.89;83.58;102204.94;6287904;22;20124;-93
2022/11/12 00:39:21;;;;;;;16.38;9.95;;;;;;;9.90;83.87;102205.78;6343002;22;20010;-93
2022/11/12 00:41:47;;;;;;;16.20;9.82;;;;;;;9.93;84.06;102232.44;6299911;22;20022;-92
2022/11/12 00:44:14;;;;;;;15.90;9.07;;;;;;;10.04;83.56;102237.81;6327428;22;20085;-91
2022/11/12 00:46:40;;;;;;;17.00;9.93;;;;;;;10.01;83.45;102231.84;6295467;22;20094;-92
2022/11/12 00:49:06;;;;;;;16.45;8.95;;;;;;;9.89;83.16;102218.38;6295509;22;20006;-92
2022/11/12 00:51:32;;;;;;;;;;;;;;;10.24;83.06;102265.84;6289892;22;20052;-90
2022/11/12 00:53:59;;;;;;;15.68;9.05;;;;;;;9.90;82.94;102227.28;6309703;22;19922;-90
2022/11/12 00:56:33;;;;;;;;;;;;;;;10.27;82.96;102260.22;6304449;22;20049;-92
2022/11/12 00:59:11;;;;;;;16.33;9.00;;;;;;;9.88;83.29;102211.28;6313053;22;19950;-92
2022/11/12 01:02:07;;;;;;;18.48;9.40;;;;;;;10.11;82.94;102239.06;6315876;22;20006;-93
2022/11/12 01:04:38;;;;;;;18.83;10.98;;;;;;;10.19;83.22;102256.44;6318718;22;20105;-90
2022/11/12 01:07:04;;;;;;;15.98;9.60;;;;;;;10.03;83.11;102227.19;6289047;22;20045;-91
2022/11/12 01:09:31;;;;;;;;;;;;;;;10.19;83.21;102253.75;6300591;22;20007;-92
2022/11/12 01:11:59;;;;;;;17.90;9.75;;;;;;;10.03;83.32;102246.00;6350030;22;19976;-91
2022/11/12 01:14:25;;;;;;;15.18;9.38;;;;;;;9.94;83.23;102240.34;6315392;22;20038;-88
2022/11/12 01:16:50;;;;;;;16.35;9.20;;;;;;;9.99;83.36;102231.09;6309134;22;20007;-92
2022/11/12 01:19:17;;;;;;;17.60;9.88;;;;;;;9.97;83.08;102244.63;6257934;22;20011;-91
2022/11/12 01:21:43;;;;;;;17.02;9.85;;;;;;;9.78;83.52;102204.91;6284118;22;20007;-92
2022/11/12 01:24:11;;;;;;;18.40;10.05;;;;;;;9.91;84.00;102245.13;6259238;22;20017;-91
2022/11/12 01:26:42;;;;;;;19.00;10.30;;;;;;;9.88;84.06;102229.22;6289465;22;20006;-91
2022/11/12 01:29:13;;;;;;;16.48;9.32;;;;;;;9.97;83.82;102249.16;6298632;22;20015;-90
2022/11/12 01:31:40;;;;;;;16.58;9.18;;;;;;;9.91;83.50;102235.22;6327127;22;20002;-91
2022/11/12 01:34:08;;;;;;;15.93;9.48;;;;;;;10.03;83.93;102256.75;6328190;22;20074;-90
2022/11/12 01:36:38;;;;;;;17.20;9.30;;;;;;;10.07;83.63;102250.19;6325822;22;20010;-90
2022/11/12 01:39:07;;;;;;;17.38;9.45;;;;;;;10.16;83.77;102265.59;6312152;22;20072;-90
2022/11/12 01:41:38;;;;;;;16.38;9.35;;;;;;;9.95;83.76;102241.22;6311056;22;20020;-88
2022/11/12 01:44:23;;;;;;;17.25;9.45;;;;;;;10.20;83.47;102272.41;6313476;22;20015;-91
2022/11/12 01:47:04;;;;;;;14.85;8.88;;;;;;;10.10;83.72;102258.00;6342819;22;20007;-92
2022/11/12 01:50:00;;;;;;;16.70;9.80;;;;;;;10.08;83.77;102265.31;6312827;22;20010;-90
2022/11/12 01:52:28;;;;;;;15.43;9.35;;;;;;;10.12;83.81;102264.09;6310668;22;20006;-91
2022/11/12 01:54:55;;;;;;;15.48;8.93;;;;;;;10.05;83.71;102252.13;6343841;22;20006;-90
2022/11/12 01:57:34;;;;;;;15.50;9.30;;;;;;;10.07;84.07;102244.81;6263118;22;20006;-92
2022/11/12 02:00:03;;;;;;;14.23;9.02;;;;;;;9.72;83.73;102173.16;6311629;22;20013;-91
2022/11/12 02:02:29;;;;;;;16.73;9.20;;;;;;;10.08;84.30;102254.56;6310897;22;20009;-92
2022/11/12 02:04:57;;;;;;;;;;;;;;;10.08;84.73;102249.19;6311289;22;20007;-91
2022/11/12 02:07:23;;;;;;;15.52;9.02;;;;;;;9.74;85.09;102206.13;6335856;22;19955;-91
2022/11/12 02:09:49;;;;;;;15.25;8.75;;;;;;;9.83;85.19;102216.16;6258837;22;20009;-92
2022/11/12 02:15:03;;;;;;;16.00;9.30;;;;;;;9.72;85.76;102211.59;6336474;22;20419;-92
2022/11/12 02:17:29;;;;;;;17.02;9.05;;;;;;;9.91;86.47;102250.50;6283539;22;20427;-91
2022/11/12 02:19:59;;;;;;;16.08;9.27;;;;;;;9.83;86.58;102231.41;6336450;22;20040;-90
2022/11/12 02:22:27;;;;;;;17.02;9.13;;;;;;;9.58;86.50;102200.22;6282355;22;20037;-90
2022/11/12 02:24:53;;;;;;;17.58;9.55;;;;;;;9.72;86.61;102224.19;6335277;22;20011;-88
2022/11/12 02:27:20;;;;;;;17.27;9.80;;;;;;;9.76;86.85;102224.78;6335290;22;20093;-90
2022/11/12 02:29:48;;;;;;;;;;;;;;;9.94;86.83;102251.09;6335711;22;19998;-89
2022/11/12 02:32:15;;;;;;;16.92;8.80;;;;;;;9.70;87.12;102210.03;6336264;22;19975;-91
2022/11/12 02:34:40;;;;;;;16.67;9.15;;;;;;;9.63;87.00;102203.41;6327809;22;20007;-91
2022/11/12 02:37:13;;;;;;;15.38;8.55;;;;;;;9.73;86.93;102220.53;6283997;22;20019;-91
2022/11/12 02:39:38;;;;;;;15.10;8.80;;;;;;;9.69;86.16;102213.66;6308256;22;20383;-92
2022/11/12 02:42:04;;;;;;;16.60;9.05;;;;;;;9.68;86.43;102228.06;6312923;22;20003;-92
2022/11/12 02:44:32;;;;;;;15.68;9.13;;;;;;;9.88;86.36;102266.81;6288299;22;20006;-91
2022/11/12 02:47:02;;;;;;;17.23;9.73;;;;;;;9.68;86.23;102211.97;6260940;22;20346;-92
2022/11/12 02:49:37;;;;;;;18.02;9.90;;;;;;;9.63;85.61;102204.25;6313554;22;20011;-93
2022/11/12 02:52:05;;;;;;;16.92;9.55;;;;;;;9.82;85.25;102218.97;6321995;22;20089;-95
2022/11/12 02:54:31;;;;;;;17.67;9.98;;;;;;;9.93;85.33;102248.56;6286254;22;20006;-92
2022/11/12 02:56:57;;;;;;;;;;;;;;;9.98;85.14;102272.38;6310591;22;20470;-92
2022/11/12 02:59:38;;;;;;;17.85;10.10;;;;;;;9.85;85.34;102250.94;6285370;22;19922;-93
2022/11/12 03:02:07;;;;;;;17.58;9.77;;;;;;;10.05;84.99;102279.00;6322287;22;20011;-91
2022/11/12 03:04:40;;;;;;;16.42;9.77;;;;;;;9.86;84.85;102234.72;6316180;22;20509;-94
2022/11/12 03:07:19;;;;;;;17.13;9.60;;;;;;;9.98;84.56;102238.31;6316242;22;20015;-93
2022/11/12 03:09:53;;;;;;;17.77;10.32;;;;;;;9.96;84.36;102244.78;6341382;22;20447;-93
2022/11/12 03:12:31;;;;;;;18.25;10.27;;;;;;;9.82;84.29;102241.31;6338727;22;20019;-93
2022/11/12 03:15:00;;;;;;;16.10;9.82;;;;;;;10.16;83.77;102276.34;6257708;22;20011;-91
2022/11/12 03:17:31;;;;;;;17.40;10.52;;;;;;;9.91;83.81;102240.59;6287615;22;20090;-92
2022/11/12 03:19:58;;;;;;;17.27;9.85;;;;;;;10.03;83.36;102254.06;6257913;22;20090;-92
2022/11/12 03:22:25;;;;;;;16.00;9.52;;;;;;;10.17;83.31;102282.56;6282310;22;20161;-93
2022/11/12 03:24:50;;;;;;;16.95;9.63;;;;;;;9.88;83.18;102232.78;6306735;22;20013;-92
2022/11/12 03:27:29;;;;;;;16.10;8.77;;;;;;;10.28;82.86;102279.91;6284361;22;20003;-94
2022/11/12 03:30:00;;;;;;;17.70;8.85;;;;;;;10.15;83.50;102274.59;6289729;22;20026;-91
2022/11/12 03:32:32;;;;;;;13.80;8.30;;;;;;;9.98;83.17;102258.94;6290752;22;20011;-94
2022/11/12 03:35:02;;;;;;;14.90;8.93;;;;;;;10.00;83.73;102270.44;6304190;22;20070;-93
2022/11/12 03:37:28;;;;;;;12.50;8.25;;;;;;;10.16;83.84;102289.78;6353128;22;20006;-90
2022/11/12 03:40:00;;;;;;;16.08;9.15;;;;;;;9.84;84.27;102255.47;6320276;22;20025;-91
2022/11/12 03:42:36;;;;;;;14.77;8.73;;;;;;;9.91;84.13;102245.97;6265266;22;20017;-92
2022/11/12 03:45:10;;;;;;;16.15;9.07;;;;;;;10.01;83.21;102256.00;6283046;22;20074;-92
2022/11/12 03:48:07;;;;;;;13.85;8.20;;;;;;;10.13;83.17;102284.63;6343543;22;20056;-92
2022/11/12 03:50:35;;;;;;;15.48;8.65;;;;;;;10.12;83.47;102296.34;6334766;22;20021;-90
2022/11/12 03:53:07;;;;;;;15.13;9.20;;;;;;;9.96;83.69;102274.31;6362037;22;20089;-93
2022/11/12 03:55:35;;;;;;;14.88;8.38;;;;;;;9.80;83.41;102247.78;6304396;22;20023;-91
2022/11/12 03:58:01;;;;;;;15.90;8.60;;;;;;;10.09;83.38;102288.50;6323466;22;20014;-92
2022/11/12 04:00:27;;;;;;;;;;;;;;;10.11;83.30;102291.94;6266656;22;20058;-90
2022/11/12 04:02:52;;;;;;;13.30;7.60;;;;;;;9.84;82.93;102251.94;6290646;22;19918;-90
2022/11/12 04:10:58;;;;;;;17.40;8.98;;;;;;;9.78;82.74;102266.69;6291713;22;20413;-92
2022/11/12 04:13:29;;;;;;;15.50;9.15;;;;;;;9.74;83.06;102265.22;6278248;22;20062;-94
2022/11/12 04:21:55;;;;;;;15.45;9.57;;;;;;;9.90;82.47;102272.94;6278633;22;20010;-91
2022/11/12 04:27:33;;;;;;;16.27;8.55;;;;;;;9.83;82.80;102277.06;6308642;22;20070;-92
2022/11/12 04:30:15;;;;;;;16.02;9.00;;;;;;;9.98;82.57;102301.94;6320763;22;20016;-92
2022/11/12 04:32:53;;;;;;;14.65;8.63;;;;;;;9.60;82.90;102260.00;6324962;22;20003;-91
2022/11/12 04:35:39;;;;;;;15.63;9.27;;;;;;;9.70;83.65;102290.59;6290530;22;20058;-90
2022/11/12 04:38:06;;;;;;;23.50;9.88;;;;;;;9.76;83.09;102300.84;6254702;22;19996;-91
2022/11/12 04:46:16;;;;;;;17.05;9.88;;;;;;;9.72;83.14;102277.91;6297788;22;20097;-91
2022/11/12 04:48:52;;;;;;;17.33;9.80;;;;;;;9.94;83.43;102309.34;6302179;22;19999;-93
2022/11/12 04:54:06;;;;;;;17.67;9.73;;;;;;;9.88;83.06;102296.38;6305105;22;20360;-93
2022/11/12 04:56:34;;;;;;;17.95;10.27;;;;;;;10.04;82.93;102314.88;6234714;22;20003;-92
2022/11/12 04:59:02;;;;;;;17.35;10.52;;;;;;;10.05;83.30;102324.69;6232226;22;20029;-94
2022/11/12 05:01:43;;;;;;;17.88;10.10;;;;;;;10.20;83.00;102336.94;6310301;22;20400;-92
2022/11/12 05:04:12;;;;;;;17.63;10.32;;;;;;;10.19;82.58;102323.63;6250951;22;20070;-93
2022/11/12 05:06:57;;;;;;;16.48;9.85;;;;;;;10.11;83.54;102318.81;6283601;22;20343;-93
2022/11/12 05:09:27;;;;;;;15.27;9.50;;;;;;;10.16;83.23;102313.97;6295438;22;19999;-92
2022/11/12 05:11:56;;;;;;;18.02;9.98;;;;;;;10.03;83.43;102286.31;6245367;22;20019;-93
2022/11/12 05:14:30;;;;;;;16.10;10.05;;;;;;;10.01;83.36;102293.63;6293230;22;20012;-94
2022/11/12 05:17:00;;;;;;;17.05;9.50;;;;;;;10.27;83.19;102331.94;6312771;22;20085;-93
2022/11/12 05:19:39;;;;;;;14.25;8.93;;;;;;;10.32;83.22;102337.84;6271437;22;20026;-93
2022/11/12 05:22:05;;;;;;;16.13;9.32;;;;;;;10.26;83.25;102344.53;6295860;22;20003;-91
2022/11/12 05:24:50;;;;;;;16.08;9.90;;;;;;;10.16;82.75;102313.97;6302568;22;20011;-93
2022/11/12 05:27:27;;;;;;;14.88;9.52;;;;;;;10.23;82.52;102315.22;6351094;22;20018;-93
2022/11/12 05:29:56;;;;;;;17.45;10.38;;;;;;;10.44;82.63;102349.47;6311817;22;20083;-92
2022/11/12 05:32:24;;;;;;;15.15;9.60;;;;;;;10.22;82.31;102308.09;6313210;22;20010;-93
2022/11/12 05:34:55;;;;;;;15.50;9.55;;;;;;;10.57;81.97;102350.25;6285590;22;20010;-93
2022/11/12 05:37:21;;;;;;;13.73;8.75;;;;;;;10.70;81.61;102364.47;6296092;22;20017;-92
2022/11/12 05:40:04;;;;;;;;;;;;;;;10.69;81.36;102364.56;6345507;22;20037;-93
2022/11/12 05:42:33;;;;;;;14.68;9.20;;;;;;;10.49;81.69;102329.34;6320776;22;19933;-94
2022/11/12 05:45:09;;;;;;;15.50;9.48;;;;;;;10.48;81.66;102324.91;6327523;22;20350;-92
2022/11/12 05:47:36;;;;;;;13.77;8.52;;;;;;;10.68;81.14;102341.34;6307517;22;20009;-93
2022/11/12 05:50:01;;;;;;;13.30;7.90;;;;;;;10.64;81.30;102339.88;6282984;22;19998;-92
2022/11/12 05:52:31;;;;;;;14.10;8.88;;;;;;;10.82;81.60;102375.25;6327017;22;20007;-90
2022/11/12 05:55:06;;;;;;;14.07;8.35;;;;;;;10.57;81.25;102339.50;6325158;22;20011;-91
2022/11/12 05:57:33;;;;;;;12.05;8.30;;;;;;;10.63;81.85;102354.28;6310024;22;20029;-90
2022/11/12 06:00:00;;;;;;;14.18;7.65;;;;;;;10.61;82.08;102356.25;6258370;22;20101;-91
2022/11/12 06:02:26;;;;;;;10.65;7.18;;;;;;;10.66;81.98;102365.66;6310789;22;20003;-90
2022/11/12 06:04:59;;;;;;;12.30;7.82;;;;;;;10.68;81.72;102379.00;6308103;22;20375;-91
2022/11/12 06:07:26;;;;;;;11.43;7.22;;;;;;;10.91;81.19;102401.41;6338021;22;20022;-93
2022/11/12 06:09:52;;;;;;;11.57;7.55;;;;;;;10.86;81.58;102387.44;6310932;22;20091;-92
2022/11/12 06:12:18;;;;;;;11.55;7.40;;;;;;;10.86;81.15;102376.69;6310217;22;20093;-91
2022/11/12 06:14:44;;;;;;;11.43;7.20;;;;;;;10.84;81.21;102378.63;6312149;22;20018;-91
2022/11/12 06:17:10;;;;;;;12.57;7.88;;;;;;;10.83;81.03;102374.25;6312969;22;20019;-90
2022/11/12 06:20:00;;;;;;;11.82;7.95;;;;;;;10.84;81.46;102384.03;6288331;22;20009;-92
2022/11/12 06:22:26;;;;;;;13.75;8.32;;;;;;;11.07;81.23;102415.34;6299737;22;20018;-89
2022/11/12 06:24:52;;;;;;;;;;;;;;;11.08;81.35;102414.41;6320875;22;20003;-90
2022/11/12 06:27:18;;;;;;;12.90;7.60;;;;;;;10.85;81.71;102369.59;6313774;22;19976;-90
2022/11/12 06:29:49;;;;;;;;;;;;;;;11.20;81.30;102401.78;6282704;22;20097;-90
2022/11/12 06:32:16;;;;;;;11.35;7.30;;;;;;;11.18;81.00;102395.66;6286279;22;19910;-91
2022/11/12 06:34:44;;;;;;;11.05;7.22;;;;;;;11.09;80.66;102375.72;6292361;22;20044;-93
2022/11/12 06:37:11;;;;;;;10.38;6.70;;;;;;;11.12;80.35;102386.25;6287188;22;20046;-92
2022/11/12 06:39:47;;;;;;;10.10;6.70;;;;;;;11.35;80.31;102415.84;6285575;22;20003;-93
2022/11/12 06:42:55;;;;;;;9.50;6.25;;;;;;;11.18;80.45;102374.97;6343086;22;20358;-93
2022/11/12 06:45:21;;;;;;;10.30;6.30;;;;;;;11.19;80.42;102384.78;6299101;22;20010;-92
2022/11/12 06:47:49;;;;;;;;;;;;;;;11.44;80.01;102417.81;6289917;22;20035;-92
2022/11/12 06:50:16;;;;;;;9.45;6.53;;;;;;;11.36;80.64;102420.28;6311230;22;19910;-91
2022/11/12 06:52:42;;;;;;;11.95;6.75;;;;;;;11.08;80.27;102371.31;6311690;22;20091;-91
2022/11/12 06:55:11;;;;;;;10.65;7.10;;;;;;;11.45;80.95;102421.34;6259894;22;20428;-91
2022/11/12 06:57:44;;;;;;;10.80;7.53;;;;;;;11.32;80.68;102411.56;6310338;22;20003;-91
2022/11/12 07:04:13;;;;;;;11.73;7.90;;;;;;;11.44;81.04;102431.28;6215773;23;20095;-90
2022/11/12 07:07:11;;;;;;;12.05;7.97;;;;;;;11.39;81.42;102428.09;6256069;22;20011;-88
2022/11/12 07:09:45;;;;;;;13.63;8.88;;;;;;;11.10;82.09;102384.69;6337086;22;20007;-91
2022/11/12 07:12:11;;;;;;;12.65;8.27;;;;;;;11.12;82.24;102398.84;6286143;22;20040;-90
2022/11/12 07:14:55;;;;;;;13.60;8.60;;;;;;;10.99;82.74;102382.81;6284250;22;20014;-92
2022/11/12 07:17:22;;;;;;;14.27;8.48;;;;;;;10.92;83.72;102376.22;6287692;22;20546;-91
2022/11/12 07:22:58;;;;;;;11.30;7.07;;;;;;;11.20;83.20;102434.09;6313916;22;19998;-89
2022/11/12 07:25:24;;;;;;;13.85;8.93;;;;;;;10.90;84.35;102394.31;6286484;22;20003;-89
2022/11/12 07:27:49;;;;;;;13.88;7.90;;;;;;;11.00;83.87;102389.91;6308457;22;20103;-91
2022/11/12 07:30:21;;;;;;;14.95;7.63;;;;;;;10.91;84.40;102378.06;6283783;22;20014;-91
2022/11/12 07:32:47;;;;;;;12.60;7.82;;;;;;;11.01;85.37;102401.56;6325138;22;20054;-89
2022/11/12 07:35:14;;;;;;;;;;;;;;;11.27;84.99;102439.84;6331487;22;20018;-89
2022/11/12 07:37:40;;;;;;;13.35;7.30;;;;;;;11.23;85.60;102438.38;6327754;22;19911;-88
2022/11/12 07:40:08;;;;;;;18.10;8.57;;;;;;;11.19;85.39;102426.97;6359717;22;19997;-91
2022/11/12 07:42:34;;;;;;;12.38;7.38;;;;;;;11.31;85.21;102441.34;6297784;22;20083;-90
2022/11/12 07:45:06;;;;;;;13.88;8.60;;;;;;;11.33;86.20;102424.06;6292651;22;20007;-90
2022/11/12 07:47:49;;;;;;;11.15;7.55;;;;;;;11.25;85.05;102402.28;6315636;22;20097;-91
2022/11/12 07:50:15;;;;;;;12.50;7.32;;;;;;;11.33;84.51;102405.22;6310704;22;20011;-88
2022/11/12 07:52:41;;;;;;;10.75;7.20;;;;;;;11.33;84.63;102405.22;6316262;22;20007;-87
2022/11/12 07:55:19;;;;;;;11.82;7.38;;;;;;;11.61;83.71;102436.16;6287794;22;20010;-90
2022/11/12 07:57:45;;;;;;;13.05;7.32;;;;;;;11.46;83.80;102407.78;6337450;22;20021;-88
2022/11/12 08:00:12;;;;;;;12.75;7.28;;;;;;;11.53;83.33;102429.69;6337156;22;20007;-89
2022/11/12 08:02:39;;;;;;;12.52;7.32;;;;;;;11.49;83.29;102410.19;6312105;22;20002;-89
2022/11/12 08:05:05;;;;;;;11.27;6.82;;;;;;;11.56;82.72;102408.72;6307251;22;20007;-86
2022/11/12 08:07:31;;;;;;;9.98;6.05;;;;;;;11.65;82.13;102422.44;6342359;22;20007;-87
2022/11/12 08:09:58;;;;;;;11.18;6.88;;;;;;;11.68;82.46;102397.94;6322016;22;20015;-86
2022/11/12 08:12:24;;;;;;;8.52;5.97;;;;;;;11.69;81.72;102402.34;6311251;22;19999;-89
2022/11/12 08:14:50;;;;;;;12.05;6.38;;;;;;;11.84;81.81;102422.63;6309881;22;20410;-91
2022/11/12 08:17:32;;;;;;;9.65;5.88;;;;;;;11.92;81.51;102422.91;6291406;22;20014;-96
2022/11/12 08:20:03;;;;;;;11.00;6.68;;;;;;;12.20;81.11;102461.91;6316374;22;20426;-90
2022/11/12 08:22:30;;;;;;;11.48;7.10;;;;;;;12.15;81.50;102425.50;6287852;22;20098;-92
2022/11/12 08:25:26;;;;;;;10.65;6.63;;;;;;;12.27;80.08;102446.09;6294075;22;20036;-95
2022/11/12 08:28:12;;;;;;;11.32;6.88;;;;;;;12.40;80.06;102462.06;6254117;22;20007;-96
2022/11/12 08:30:55;;;;;;;11.40;7.07;;;;;;;12.27;79.94;102439.81;6280157;22;20084;-90
2022/11/12 08:34:14;;;;;;;14.20;7.00;;;;;;;12.29;79.13;102417.16;6293477;22;20019;-93
2022/11/12 08:36:42;;;;;;;10.50;6.75;;;;;;;12.55;78.99;102459.91;6294801;22;20019;-90
2022/11/12 08:39:13;;;;;;;12.57;6.82;;;;;;;12.56;79.33;102469.75;6301096;22;20011;-92
2022/11/12 08:41:50;;;;;;;10.65;7.05;;;;;;;12.43;78.98;102446.50;6302634;22;20157;-93
2022/11/12 08:45:00;;;;;;;10.38;6.93;;;;;;;12.73;78.91;102474.53;6295117;22;19999;-96
2022/11/12 08:53:17;;;;;;;11.65;6.53;;;;;;;12.80;77.42;102464.94;6305588;22;20023;-91
2022/11/12 08:55:47;;;;;;;10.18;6.07;;;;;;;12.84;76.72;102454.75;6285073;22;20078;-93
2022/11/12 08:58:16;;;;;;;10.55;6.93;;;;;;;13.10;76.50;102468.69;6278630;22;20049;-92
2022/11/12 09:00:45;;;;;;;9.50;6.10;;;;;;;13.23;75.06;102445.03;6254899;22;20034;-93
2022/11/12 09:03:19;;;;;;;11.25;6.68;;;;;;;13.73;74.43;102473.97;6283093;22;20011;-92
2022/11/12 09:05:49;;;;;;;9.68;6.75;;;;;;;14.34;72.56;102451.28;6271918;22;20011;-95
2022/11/12 09:08:21;;;;;;;9.65;6.07;;;;;;;15.67;67.92;102450.44;6284524;22;19999;-93
2022/11/12 09:10:51;;;;;;;10.55;6.72;;;;;;;19.33;58.58;102453.34;6231600;22;20069;-94
2022/11/12 09:13:18;;;;;;;8.02;5.40;;;;;;;21.38;50.00;102436.31;6259659;22;20003;-95
2022/11/12 09:15:54;;;;;;;9.07;5.38;;;;;;;23.03;45.09;102440.19;6315932;22;20011;-95
2022/11/12 09:18:32;;;;;;;9.15;5.43;;;;;;;24.33;41.07;102413.66;6327860;22;20011;-93
2022/11/12 09:21:34;;;;;;;9.98;5.50;;;;;;;25.57;37.63;102432.13;6286350;22;20011;-94
2022/11/12 09:24:20;;;;;;;6.72;5.03;;;;;;;26.85;34.95;102427.47;6323361;22;20007;-94
2022/11/12 09:27:06;;;;;;;6.95;4.95;;;;;;;28.65;32.36;102398.28;6302542;22;20007;-94
2022/11/12 09:29:36;;;;;;;6.75;4.70;;;;;;;28.99;31.09;102401.28;6293339;22;20039;-94
2022/11/12 09:32:06;;;;;;;7.38;4.50;;;;;;;29.33;30.77;102412.56;6285798;22;20168;-95
2022/11/12 09:34:55;;;;;;;5.95;4.22;;;;;;;29.89;29.40;102424.78;6311380;22;20515;-95
2022/11/12 09:37:31;;;;;;;8.25;4.70;;;;;;;31.21;27.84;102411.44;6272778;22;20004;-95
2022/11/12 09:40:23;;;;;;;5.80;3.88;;;;;;;31.47;26.33;102382.03;6285753;22;20003;-95
2022/11/12 09:43:01;;;;;;;6.68;4.20;;;;;;;32.10;25.83;102388.00;6225584;22;20094;-93
2022/11/12 09:45:34;;;;;;;6.55;4.20;;;;;;;30.09;27.70;102393.84;6297492;22;20014;-96
2022/11/12 09:48:24;;;;;;;5.82;4.10;;;;;;;28.96;28.90;102386.00;6286539;22;20003;-95
2022/11/12 09:51:35;;;;;;;6.80;4.35;;;;;;;29.79;28.28;102410.75;6259622;22;20086;-96
2022/11/12 09:54:40;;;;;;;5.93;4.10;;;;;;;30.70;26.63;102403.19;6324390;22;20030;-94
2022/11/12 09:57:18;;;;;;;5.43;4.50;;;;;;;28.40;30.13;102391.03;6314632;22;20011;-96
2022/11/12 10:03:37;;;;;;;7.03;4.13;;;;;;;27.60;31.13;102420.91;6323257;22;20026;-94
2022/11/12 10:06:17;;;;;;;10.25;6.68;;;;;;;25.87;33.60;102399.38;6267330;22;20094;-93
2022/11/12 10:09:09;;;;;;;5.82;4.30;;;;;;;27.32;31.95;102416.78;6295154;22;20105;-95
2022/11/12 10:12:34;;;;;;;10.05;5.90;;;;;;;27.39;31.30;102416.72;6323429;22;19995;-92
2022/11/12 10:18:29;;;;;;;7.55;4.90;;;;;;;26.00;35.35;102419.63;6319232;22;20026;-94
2022/11/12 10:21:45;;;;;;;9.48;6.25;;;;;;;24.03;38.69;102425.03;6299189;22;20000;-95
2022/11/12 10:24:55;;;;;;;7.90;5.40;;;;;;;22.75;41.09;102387.00;6309244;22;20015;-93
2022/11/12 10:27:44;;;;;;;10.30;6.18;;;;;;;21.47;44.43;102424.28;6285840;22;20011;-94
2022/11/12 10:30:30;;;;;;;11.32;6.70;;;;;;;20.80;46.32;102399.72;6261110;22;20483;-96
2022/11/12 10:33:01;;;;;;;9.90;6.50;;;;;;;22.01;43.46;102423.00;6278044;22;20008;-94
2022/11/12 10:35:39;;;;;;;7.93;5.85;;;;;;;21.11;44.90;102402.25;6292282;22;20007;-93
2022/11/12 10:38:20;;;;;;;11.15;7.63;;;;;;;22.29;42.70;102408.56;6287206;22;20027;-94
2022/11/12 10:41:43;;;;;;;8.85;5.50;;;;;;;24.42;39.18;102434.41;6303043;22;19991;-93
2022/11/12 10:44:15;;;;;;;8.77;5.57;;;;;;;25.85;35.43;102431.78;6304716;22;20363;-95
2022/11/12 10:46:54;;;;;;;7.30;4.82;;;;;;;25.85;34.65;102418.00;6276315;22;20014;-96
2022/11/12 10:49:28;;;;;;;7.57;4.85;;;;;;;23.33;39.11;102392.22;6259666;22;20077;-95
2022/11/12 10:52:43;;;;;;;8.40;5.65;;;;;;;24.39;37.90;102407.31;6309171;22;20427;-96
2022/11/12 10:55:26;;;;;;;7.75;5.70;;;;;;;26.50;34.13;102394.88;6281340;22;20074;-93
2022/11/12 10:58:15;;;;;;;7.18;5.20;;;;;;;27.68;32.21;102426.97;6281273;22;20089;-95
2022/11/12 11:01:13;;;;;;;6.03;4.68;;;;;;;28.03;30.50;102400.59;6307475;22;20366;-95
2022/11/12 11:03:58;;;;;;;8.32;5.43;;;;;;;26.77;32.45;102402.94;6231951;22;20003;-94
2022/11/12 11:06:40;;;;;;;7.57;5.28;;;;;;;26.52;32.45;102418.38;6288529;22;20015;-94
2022/11/12 11:09:37;;;;;;;6.57;5.10;;;;;;;24.26;36.17;102408.16;6208556;22;20011;-96
2022/11/12 11:12:41;;;;;;;11.95;6.38;;;;;;;22.91;39.82;102443.44;6316358;22;20107;-94
2022/11/12 11:15:30;;;;;;;10.90;6.47;;;;;;;21.77;42.78;102440.63;6306050;22;20011;-96
2022/11/12 11:18:02;;;;;;;8.90;6.50;;;;;;;20.83;44.18;102404.78;6282244;22;20014;-95
2022/11/12 11:21:01;;;;;;;14.90;6.97;;;;;;;19.82;47.25;102398.59;6308818;22;20079;-94
2022/11/12 11:24:01;;;;;;;14.35;7.22;;;;;;;19.93;47.92;102449.22;6171409;23;20073;-95
2022/11/12 11:27:07;;;;;;;16.38;6.90;;;;;;;20.75;46.54;102440.44;6206014;22;20024;-92
2022/11/12 11:30:01;;;;;;;12.82;7.35;;;;;;;21.48;44.85;102449.75;6196715;23;20013;-90
2022/11/12 11:33:14;;;;;;;11.38;6.90;;;;;;;21.05;44.94;102435.84;6186283;23;20064;-93
2022/11/12 11:39:24;;;;;;;11.75;7.30;;;;;;;21.97;42.79;102413.47;6187084;23;20067;-88
2022/11/12 11:42:18;;;;;;;10.93;7.10;;;;;;;22.02;42.90;102448.50;6199070;23;20002;-88
2022/11/12 11:45:06;;;;;;;10.98;7.90;;;;;;;21.75;43.41;102422.69;6187190;23;20032;-90
2022/11/12 11:51:47;;;;;;;;;;;;;;;;;;;;;
2022/11/12 11:54:38;;;;;;;13.68;7.78;;;;;;;20.83;46.28;102443.06;6262341;22;20041;-91
2022/11/12 11:57:16;;;;;;;12.65;7.95;;;;;;;19.36;49.30;102425.72;6312440;22;20030;-91
2022/11/12 12:00:26;;;;;;;14.68;8.10;;;;;;;19.12;50.18;102422.06;6256520;22;20014;-92
2022/11/12 12:03:10;;;;;;;10.45;7.68;;;;;;;18.89;51.01;102440.16;6279974;22;20411;-90
2022/11/12 12:05:59;;;;;;;13.05;7.82;;;;;;;18.81;51.52;102423.84;6310668;22;20068;-91
2022/11/12 12:08:46;;;;;;;10.98;7.72;;;;;;;18.35;52.21;102441.56;6307429;22;20090;-91
2022/11/12 12:11:39;;;;;;;14.48;8.55;;;;;;;18.22;53.27;102454.78;6308955;22;20038;-91
2022/11/12 12:17:40;;;;;;;14.18;8.52;;;;;;;17.77;55.09;102463.31;6308973;22;20006;-89
2022/11/12 12:20:24;;;;;;;13.02;8.73;;;;;;;17.40;55.78;102469.97;6285263;22;20010;-90
2022/11/12 12:22:53;;;;;;;15.15;9.15;;;;;;;16.80;56.92;102440.88;6292540;22;20010;-90
2022/11/12 12:25:33;;;;;;;12.35;8.90;;;;;;;16.63;57.78;102438.00;6259320;22;20029;-90
2022/11/12 12:28:15;;;;;;;13.25;8.05;;;;;;;16.51;58.38;102455.56;6293298;22;20018;-88
2022/11/12 12:30:44;;;;;;;12.82;9.07;;;;;;;16.07;59.61;102447.34;6289760;22;20082;-90
2022/11/12 12:34:01;;;;;;;13.00;8.88;;;;;;;16.08;60.60;102481.59;6279141;22;20018;-92
2022/11/12 12:36:36;;;;;;;15.80;9.27;;;;;;;15.78;61.70;102470.09;6280746;22;20018;-93
2022/11/12 12:39:39;;;;;;;12.45;8.27;;;;;;;15.53;62.15;102427.38;6279864;22;20014;-93
2022/11/12 12:42:34;;;;;;;11.60;8.07;;;;;;;15.66;61.92;102454.97;6233809;22;20325;-91
2022/11/12 12:45:28;;;;;;;13.88;8.10;;;;;;;15.40;62.68;102431.31;6278578;22;20003;-90
2022/11/12 12:47:54;;;;;;;14.23;8.93;;;;;;;15.19;63.06;102428.81;6268485;22;20061;-88
2022/11/12 12:50:20;;;;;;;;;;;;;;;15.43;63.73;102480.75;6278972;22;20260;-89
2022/11/12 12:53:02;;;;;;;15.30;8.73;;;;;;;14.99;64.45;102430.72;6253557;22;20251;-93
2022/11/12 12:55:45;;;;;;;14.70;8.82;;;;;;;14.82;65.42;102438.75;6256071;22;20094;-92
2022/11/12 12:58:44;;;;;;;21.92;9.50;;;;;;;14.70;65.59;102425.38;6254992;22;20014;-89
2022/11/12 13:01:22;;;;;;;20.02;9.45;;;;;;;14.85;65.87;102471.81;6233931;22;20013;-91